createdAt,value
2018-12-17T00:01:29.012Z,98300.66
2018-12-17T00:03:59.730Z,98296.97
2018-12-17T00:06:30.001Z,98300.78
2018-12-17T00:08:58.838Z,98305.23
2018-12-17T00:11:27.273Z,98305.99
2018-12-17T00:13:55.522Z,98310.56
2018-12-17T00:16:23.792Z,98310.69
2018-12-17T00:18:52.439Z,98313.37
2018-12-17T00:21:21.245Z,98318.22
2018-12-17T00:23:49.541Z,98310.72
2018-12-17T00:26:17.811Z,98313.98
2018-12-17T00:28:46.231Z,98321.73
2018-12-17T00:31:14.773Z,98323.24
2018-12-17T00:33:43.033Z,98318.94
2018-12-17T00:36:12.115Z,98323.16
2018-12-17T00:38:40.362Z,98319.27
2018-12-17T00:41:08.763Z,98314.70
2018-12-17T00:43:37.180Z,98326.33
2018-12-17T00:46:05.786Z,98321.44
2018-12-17T00:48:34.139Z,98319.08
2018-12-17T00:51:02.455Z,98321.95
2018-12-17T00:53:30.765Z,98329.06
2018-12-17T00:55:59.630Z,98321.77
2018-12-17T00:58:28.195Z,98323.59
2018-12-17T01:00:56.750Z,98329.65
2018-12-17T01:03:25.044Z,98332.07
2018-12-17T01:05:53.652Z,98328.79
2018-12-17T01:08:21.975Z,98330.89
2018-12-17T01:10:50.569Z,98330.75
2018-12-17T01:13:19.546Z,98333.52
2018-12-17T01:15:47.914Z,98331.64
2018-12-17T01:18:16.255Z,98339.64
2018-12-17T01:20:44.705Z,98344.94
2018-12-17T01:23:13.097Z,98350.30
2018-12-17T01:25:41.665Z,98360.55
2018-12-17T01:28:09.980Z,98360.95
2018-12-17T01:30:38.265Z,98364.72
2018-12-17T01:33:06.902Z,98360.23
2018-12-17T01:35:35.741Z,98364.98
2018-12-17T01:38:04.631Z,98360.84
2018-12-17T01:40:33.393Z,98368.83
2018-12-17T01:43:02.140Z,98373.78
2018-12-17T01:45:30.548Z,98386.66
2018-12-17T01:47:58.822Z,98384.34
2018-12-17T01:50:27.071Z,98388.64
2018-12-17T01:52:55.774Z,98387.52
2018-12-17T01:55:24.039Z,98391.36
2018-12-17T01:57:52.363Z,98389.22
2018-12-17T02:00:20.665Z,98399.02
2018-12-17T02:02:49.199Z,98394.34
2018-12-17T02:05:18.945Z,98399.01
2018-12-17T02:07:47.257Z,98395.97
2018-12-17T02:10:15.638Z,98394.30
2018-12-17T02:12:43.985Z,98396.33
2018-12-17T02:15:12.536Z,98405.31
2018-12-17T02:17:41.016Z,98404.84
2018-12-17T02:20:09.597Z,98408.31
2018-12-17T02:22:38.159Z,98413.13
2018-12-17T02:25:06.511Z,98413.52
2018-12-17T02:27:34.757Z,98411.10
2018-12-17T02:30:03.401Z,98412.89
2018-12-17T02:32:32.774Z,98411.52
2018-12-17T02:35:01.227Z,98419.88
2018-12-17T02:37:29.582Z,98410.27
2018-12-17T02:39:57.882Z,98414.07
2018-12-17T02:42:26.737Z,98416.70
2018-12-17T02:44:56.058Z,98419.00
2018-12-17T02:47:24.305Z,98418.38
2018-12-17T02:49:52.597Z,98421.28
2018-12-17T02:52:21.319Z,98426.45
2018-12-17T02:54:49.960Z,98424.88
2018-12-17T02:57:18.427Z,98429.31
2018-12-17T02:59:46.679Z,98423.91
2018-12-17T03:02:15.395Z,98428.52
2018-12-17T03:04:43.742Z,98428.65
2018-12-17T03:07:12.355Z,98433.19
2018-12-17T03:09:41.036Z,98432.92
2018-12-17T03:12:09.281Z,98434.15
2018-12-17T03:14:37.636Z,98440.69
2018-12-17T03:17:05.897Z,98441.55
2018-12-17T03:19:34.618Z,98447.03
2018-12-17T03:22:03.179Z,98448.96
2018-12-17T03:24:31.447Z,98452.44
2018-12-17T03:26:59.710Z,98446.42
2018-12-17T03:29:28.088Z,98451.50
2018-12-17T03:31:57.410Z,98455.57
2018-12-17T03:34:26.057Z,98453.67
2018-12-17T03:36:54.890Z,98455.13
2018-12-17T03:39:23.429Z,98458.84
2018-12-17T03:41:51.684Z,98461.17
2018-12-17T03:44:20.220Z,98459.00
2018-12-17T03:46:49.743Z,98463.30
2018-12-17T03:49:18.017Z,98463.10
2018-12-17T03:51:49.062Z,98465.46
2018-12-17T03:54:17.334Z,98469.15
2018-12-17T03:56:46.078Z,98472.95
2018-12-17T03:59:14.785Z,98478.72
2018-12-17T04:01:43.058Z,98479.13
2018-12-17T04:04:11.531Z,98481.79
2018-12-17T04:06:39.777Z,98480.02
2018-12-17T04:09:08.145Z,98487.58
2018-12-17T04:11:36.765Z,98488.73
2018-12-17T04:14:06.106Z,98485.63
2018-12-17T04:16:34.729Z,98490.79
2018-12-17T04:19:02.971Z,98490.42
2018-12-17T04:21:31.394Z,98494.03
2018-12-17T04:23:59.981Z,98495.64
2018-12-17T04:26:30.404Z,98498.14
2018-12-17T04:29:06.491Z,98498.24
2018-12-17T04:31:29.563Z,98500.41
2018-12-17T04:33:57.792Z,98502.30
2018-12-17T04:36:25.996Z,98507.03
2018-12-17T04:38:54.815Z,98506.73
2018-12-17T04:41:23.078Z,98512.23
2018-12-17T04:43:51.774Z,98517.48
2018-12-17T04:46:20.011Z,98515.53
2018-12-17T04:48:48.351Z,98523.48
2018-12-17T04:51:17.569Z,98533.95
2018-12-17T04:56:13.666Z,98536.55
2018-12-17T04:58:41.896Z,98536.58
2018-12-17T05:01:10.378Z,98542.75
2018-12-17T05:03:38.677Z,98545.34
2018-12-17T05:06:06.957Z,98551.58
2018-12-17T05:08:35.166Z,98553.75
2018-12-17T05:11:03.655Z,98556.31
2018-12-17T05:13:32.525Z,98566.33
2018-12-17T05:16:01.259Z,98567.71
2018-12-17T05:18:29.560Z,98573.55
2018-12-17T05:20:58.326Z,98576.30
2018-12-17T05:23:26.761Z,98580.75
2018-12-17T05:25:55.011Z,98587.00
2018-12-17T05:28:23.617Z,98592.19
2018-12-17T05:30:52.174Z,98594.64
2018-12-17T05:33:20.795Z,98597.52
2018-12-17T05:35:49.317Z,98595.62
2018-12-17T05:38:18.074Z,98597.31
2018-12-17T05:40:46.791Z,98600.72
2018-12-17T05:43:16.608Z,98613.51
2018-12-17T05:45:45.180Z,98613.59
2018-12-17T05:48:13.414Z,98615.13
2018-12-17T05:50:48.971Z,98627.67
2018-12-17T05:53:17.359Z,98628.65
2018-12-17T05:55:45.754Z,98626.89
2018-12-17T05:58:14.052Z,98625.62
2018-12-17T06:00:42.640Z,98627.30
2018-12-17T06:03:11.219Z,98630.88
2018-12-17T06:05:39.522Z,98639.39
2018-12-17T06:08:09.821Z,98646.65
2018-12-17T06:10:38.404Z,98641.46
2018-12-17T06:13:06.719Z,98644.46
2018-12-17T06:15:35.214Z,98646.97
2018-12-17T06:18:03.724Z,98647.62
2018-12-17T06:20:32.160Z,98651.35
2018-12-17T06:23:00.481Z,98653.98
2018-12-17T06:25:28.993Z,98660.39
2018-12-17T06:27:57.522Z,98668.38
2018-12-17T06:30:25.847Z,98677.13
2018-12-17T06:32:54.714Z,98677.32
2018-12-17T06:35:22.941Z,98679.23
2018-12-17T06:37:51.621Z,98681.83
2018-12-17T06:40:20.061Z,98683.67
2018-12-17T06:42:48.622Z,98685.05
2018-12-17T06:45:17.271Z,98690.86
2018-12-17T06:47:45.565Z,98679.69
2018-12-17T06:50:13.821Z,98684.84
2018-12-17T06:52:42.891Z,98686.20
2018-12-17T06:55:11.098Z,98682.08
2018-12-17T06:57:39.585Z,98690.35
2018-12-17T07:00:08.873Z,98694.66
2018-12-17T07:02:37.439Z,98706.68
2018-12-17T07:05:05.979Z,98717.55
2018-12-17T07:07:34.183Z,98719.76
2018-12-17T07:10:02.508Z,98728.41
2018-12-17T07:12:31.156Z,98733.50
2018-12-17T07:14:59.674Z,98734.18
2018-12-17T07:17:27.963Z,98734.03
2018-12-17T07:19:56.394Z,98741.95
2018-12-17T07:22:25.262Z,98739.31
2018-12-17T07:24:54.669Z,98739.47
2018-12-17T07:27:22.963Z,98740.56
2018-12-17T07:29:51.277Z,98750.90
2018-12-17T07:32:19.572Z,98757.66
2018-12-17T07:34:48.934Z,98760.33
2018-12-17T07:37:18.248Z,98768.02
2018-12-17T07:39:47.453Z,98772.92
2018-12-17T07:42:15.753Z,98783.41
2018-12-17T07:44:44.003Z,98774.50
2018-12-17T07:47:12.522Z,98783.45
2018-12-17T07:49:40.769Z,98788.58
2018-12-17T07:52:09.294Z,98788.66
2018-12-17T07:54:37.527Z,98790.27
2018-12-17T07:57:05.873Z,98798.11
2018-12-17T07:59:34.371Z,98801.77
2018-12-17T08:02:03.041Z,98799.61
2018-12-17T08:04:32.719Z,98805.63
2018-12-17T08:07:01.021Z,98809.92
2018-12-17T08:09:29.417Z,98812.30
2018-12-17T08:11:57.734Z,98813.32
2018-12-17T08:14:26.061Z,98822.06
2018-12-17T08:16:54.832Z,98829.22
2018-12-17T08:19:23.241Z,98842.23
2018-12-17T08:21:51.773Z,98833.77
2018-12-17T08:24:20.022Z,98834.16
2018-12-17T08:26:48.314Z,98849.61
2018-12-17T08:29:16.599Z,98844.45
2018-12-17T08:31:45.206Z,98846.05
2018-12-17T08:34:13.467Z,98853.72
2018-12-17T08:36:42.067Z,98851.88
2018-12-17T08:39:10.536Z,98848.52
2018-12-17T08:41:39.192Z,98859.16
2018-12-17T08:44:07.450Z,98861.70
2018-12-17T08:46:35.689Z,98866.48
2018-12-17T08:49:04.003Z,98868.97
2018-12-17T08:51:33.281Z,98866.17
2018-12-17T08:54:01.805Z,98867.14
2018-12-17T08:56:30.356Z,98869.67
2018-12-17T08:58:58.891Z,98876.47
2018-12-17T09:01:27.609Z,98884.22
2018-12-17T09:03:56.035Z,98880.09
2018-12-17T09:06:25.155Z,98883.27
2018-12-17T09:08:54.181Z,98876.47
2018-12-17T09:11:22.445Z,98876.89
2018-12-17T09:13:50.732Z,98880.50
2018-12-17T09:16:19.303Z,98880.06
2018-12-17T09:18:47.910Z,98876.31
2018-12-17T09:21:16.485Z,98887.77
2018-12-17T09:23:44.776Z,98887.72
2018-12-17T09:26:13.006Z,98890.44
2018-12-17T09:28:41.562Z,98889.39
2018-12-17T09:31:10.147Z,98903.48
2018-12-17T09:33:38.528Z,98907.09
2018-12-17T09:36:07.510Z,98906.87
2018-12-17T09:38:35.867Z,98912.69
2018-12-17T09:41:04.099Z,98907.14
2018-12-17T09:43:32.699Z,98915.34
2018-12-17T09:46:02.072Z,98912.91
2018-12-17T09:48:30.301Z,98913.08
2018-12-17T09:50:58.611Z,98905.36
2018-12-17T09:53:26.921Z,98907.62
2018-12-17T09:55:55.496Z,98904.16
2018-12-17T09:58:23.845Z,98909.83
2018-12-17T10:00:52.455Z,98908.05
2018-12-17T10:03:20.945Z,98912.26
2018-12-17T10:05:49.250Z,98909.19
2018-12-17T10:08:18.070Z,98909.83
2018-12-17T10:10:46.532Z,98907.34
2018-12-17T10:13:15.066Z,98910.58
2018-12-17T10:15:44.152Z,98909.66
2018-12-17T10:18:12.794Z,98915.48
2018-12-17T10:20:41.336Z,98912.73
2018-12-17T10:23:09.626Z,98912.78
2018-12-17T10:25:38.165Z,98908.73
2018-12-17T10:28:06.723Z,98914.77
2018-12-17T10:30:35.207Z,98909.30
2018-12-17T10:33:04.639Z,98908.62
2018-12-17T10:35:32.855Z,98904.67
2018-12-17T10:38:01.977Z,98896.24
2018-12-17T10:43:11.693Z,98891.64
2018-12-17T10:45:40.103Z,98884.49
2018-12-17T10:48:08.434Z,98893.52
2018-12-17T10:53:16.383Z,98895.74
2018-12-17T10:55:45.717Z,98901.65
2018-12-17T10:58:13.969Z,98895.59
2018-12-17T11:00:47.893Z,98904.11
2018-12-17T11:03:20.701Z,98899.20
2018-12-17T11:05:50.730Z,98899.53
2018-12-17T11:08:20.339Z,98898.58
2018-12-17T11:10:49.138Z,98893.86
2018-12-17T11:13:17.725Z,98894.09
2018-12-17T11:15:45.986Z,98893.89
2018-12-17T11:18:14.491Z,98891.52
2018-12-17T11:20:42.709Z,98893.98
2018-12-17T11:23:11.247Z,98898.33
2018-12-17T11:25:39.500Z,98893.27
2018-12-17T11:28:07.821Z,98895.34
2018-12-17T11:30:37.028Z,98890.38
2018-12-17T11:33:05.763Z,98884.16
2018-12-17T11:35:34.043Z,98879.42
2018-12-17T11:38:02.856Z,98878.01
2018-12-17T11:40:31.348Z,98885.47
2018-12-17T11:43:00.575Z,98884.12
2018-12-17T11:45:30.956Z,98886.20
2018-12-17T11:47:59.447Z,98885.75
2018-12-17T11:50:29.661Z,98881.47
2018-12-17T11:52:58.648Z,98885.24
2018-12-17T11:55:27.206Z,98881.63
2018-12-17T11:58:15.230Z,98887.09
2018-12-17T12:00:53.969Z,98890.66
2018-12-17T12:03:23.199Z,98886.38
2018-12-17T12:05:51.434Z,98888.64
2018-12-17T12:08:20.397Z,98887.77
2018-12-17T12:10:48.992Z,98873.93
2018-12-17T12:13:19.165Z,98894.77
2018-12-17T12:15:47.406Z,98893.80
2018-12-17T12:18:15.996Z,98895.95
2018-12-17T12:20:44.572Z,98895.55
2018-12-17T12:23:13.440Z,98894.17
2018-12-17T12:25:42.020Z,98898.96
2018-12-17T12:28:10.321Z,98904.05
2018-12-17T12:30:39.577Z,98898.25
2018-12-17T12:33:08.282Z,98900.27
2018-12-17T12:35:36.897Z,98907.00
2018-12-17T12:38:05.199Z,98911.20
2018-12-17T12:40:33.829Z,98912.27
2018-12-17T12:43:03.024Z,98913.63
2018-12-17T12:45:31.650Z,98911.65
2018-12-17T12:48:00.766Z,98908.75
2018-12-17T12:50:30.531Z,98917.17
2018-12-17T12:53:00.342Z,98912.53
2018-12-17T12:55:28.913Z,98929.69
2018-12-17T12:58:03.398Z,98933.47
2018-12-17T13:00:28.371Z,98933.22
2018-12-17T13:02:57.272Z,98940.16
2018-12-17T13:05:25.569Z,98943.17
2018-12-17T13:07:54.152Z,98940.69
2018-12-17T13:10:22.551Z,98952.05
2018-12-17T13:12:51.319Z,98951.16
2018-12-17T13:15:19.615Z,98950.41
2018-12-17T13:17:48.890Z,98955.98
2018-12-17T13:20:17.243Z,98960.78
2018-12-17T13:22:47.065Z,98965.37
2018-12-17T13:25:27.642Z,98967.87
2018-12-17T13:27:55.907Z,98978.50
2018-12-17T13:30:24.509Z,98977.28
2018-12-17T13:32:52.725Z,98973.88
2018-12-17T13:35:21.369Z,98976.44
2018-12-17T13:37:49.721Z,98975.08
2018-12-17T13:40:19.370Z,98974.39
2018-12-17T13:42:48.033Z,98983.05
2018-12-17T13:45:16.646Z,98988.09
2018-12-17T13:47:45.166Z,98990.83
2018-12-17T13:50:19.184Z,98997.12
2018-12-17T13:52:47.397Z,99000.87
2018-12-17T13:55:15.880Z,99010.23
2018-12-17T13:57:44.198Z,99012.93
2018-12-17T14:00:13.094Z,99019.83
2018-12-17T14:02:41.873Z,99020.75
2018-12-17T14:05:10.184Z,99020.20
2018-12-17T14:07:38.408Z,99019.13
2018-12-17T14:10:15.351Z,99030.06
2018-12-17T14:12:43.955Z,99028.38
2018-12-17T14:15:13.194Z,99033.51
2018-12-17T14:20:31.966Z,99048.97
2018-12-17T14:23:00.708Z,99063.87
2018-12-17T14:25:29.387Z,99067.83
2018-12-17T14:27:57.698Z,99066.72
2018-12-17T14:30:25.929Z,99074.40
2018-12-17T14:32:54.149Z,99080.85
2018-12-17T14:35:22.433Z,99089.42
2018-12-17T14:37:59.293Z,99098.60
2018-12-17T14:40:28.366Z,99104.06
2018-12-17T14:42:56.891Z,99110.02
2018-12-17T14:45:25.390Z,99116.92
2018-12-17T14:47:54.049Z,99121.87
2018-12-17T14:50:22.477Z,99118.98
2018-12-17T14:52:51.258Z,99121.26
2018-12-17T14:55:19.653Z,99124.03
2018-12-17T14:57:48.165Z,99128.52
2018-12-17T15:00:16.765Z,99135.78
2018-12-17T15:02:45.799Z,99136.20
2018-12-17T15:05:19.628Z,99145.91
2018-12-17T15:07:48.391Z,99144.47
2018-12-17T15:10:17.134Z,99158.83
2018-12-17T15:12:46.018Z,99154.73
2018-12-17T15:15:14.307Z,99171.34
2018-12-17T15:17:43.920Z,99174.36
2018-12-17T15:20:12.391Z,99177.89
2018-12-17T15:22:41.204Z,99189.15
2018-12-17T15:25:10.443Z,99195.59
2018-12-17T15:27:39.369Z,99198.02
2018-12-17T15:30:07.776Z,99194.39
2018-12-17T15:32:36.085Z,99195.42
2018-12-17T15:35:04.689Z,99194.84
2018-12-17T15:37:33.934Z,99205.58
2018-12-17T15:40:02.691Z,99197.09
2018-12-17T15:42:30.998Z,99214.61
2018-12-17T15:44:59.306Z,99205.84
2018-12-17T15:47:28.314Z,99209.49
2018-12-17T15:49:56.574Z,99217.04
2018-12-17T15:52:25.270Z,99218.00
2018-12-17T15:54:53.636Z,99221.06
2018-12-17T15:57:21.895Z,99222.91
2018-12-17T15:59:51.494Z,99224.98
2018-12-17T16:02:20.018Z,99223.30
2018-12-17T16:04:48.357Z,99220.12
2018-12-17T16:07:16.865Z,99207.64
2018-12-17T16:09:45.199Z,99212.66
2018-12-17T16:12:13.497Z,99218.44
2018-12-17T16:14:42.038Z,99216.02
2018-12-17T16:17:15.331Z,99216.07
2018-12-17T16:19:44.802Z,99212.57
2018-12-17T16:22:13.057Z,99212.67
2018-12-17T16:24:41.420Z,99214.53
2018-12-17T16:27:09.769Z,99226.52
2018-12-17T16:29:41.780Z,99226.39
2018-12-17T16:32:10.214Z,99225.95
2018-12-17T16:34:38.955Z,99229.77
2018-12-17T16:37:07.831Z,99236.03
2018-12-17T16:39:38.706Z,99233.25
2018-12-17T16:42:10.016Z,99233.88
2018-12-17T16:44:38.656Z,99239.09
2018-12-17T16:47:07.936Z,99248.20
2018-12-17T16:49:37.536Z,99244.60
2018-12-17T16:52:09.811Z,99252.95
2018-12-17T16:54:38.286Z,99259.10
2018-12-17T16:57:06.542Z,99255.63
2018-12-17T16:59:34.834Z,99258.11
2018-12-17T17:02:04.592Z,99268.94
2018-12-17T17:04:33.801Z,99264.75
2018-12-17T17:07:02.462Z,99267.74
2018-12-17T17:09:31.863Z,99274.81
2018-12-17T17:12:00.313Z,99267.06
2018-12-17T17:14:28.780Z,99270.98
2018-12-17T17:16:57.357Z,99280.56
2018-12-17T17:19:26.276Z,99278.45
2018-12-17T17:21:55.810Z,99282.55
2018-12-17T17:24:24.331Z,99291.19
2018-12-17T17:26:52.801Z,99289.78
2018-12-17T17:29:21.058Z,99307.88
2018-12-17T17:31:49.717Z,99305.92
2018-12-17T17:34:17.993Z,99303.05
2018-12-17T17:36:48.414Z,99305.16
2018-12-17T17:39:16.654Z,99314.15
2018-12-17T17:41:44.904Z,99318.38
2018-12-17T17:44:13.371Z,99309.47
2018-12-17T17:46:41.663Z,99308.34
2018-12-17T17:49:09.997Z,99311.50
2018-12-17T17:51:38.500Z,99307.45
2018-12-17T17:54:07.376Z,99310.78
2018-12-17T17:56:36.454Z,99312.03
2018-12-17T17:59:04.835Z,99316.47
2018-12-17T18:01:33.203Z,99323.34
2018-12-17T18:04:02.231Z,99325.02
2018-12-17T18:06:30.570Z,99332.13
2018-12-17T18:08:58.853Z,99334.53
2018-12-17T18:11:27.174Z,99335.16
2018-12-17T18:13:55.497Z,99342.87
2018-12-17T18:16:24.106Z,99348.70
2018-12-17T18:18:53.368Z,99350.86
2018-12-17T18:21:22.000Z,99352.61
2018-12-17T18:23:50.423Z,99353.70
2018-12-17T18:26:19.554Z,99363.48
2018-12-17T18:28:48.860Z,99362.48
2018-12-17T18:31:17.732Z,99369.72
2018-12-17T18:33:47.773Z,99369.20
2018-12-17T18:36:17.030Z,99374.61
2018-12-17T18:38:45.864Z,99384.20
2018-12-17T18:41:14.170Z,99387.48
2018-12-17T18:43:42.753Z,99383.84
2018-12-17T18:46:11.254Z,99388.55
2018-12-17T18:48:39.934Z,99387.78
2018-12-17T18:51:08.914Z,99392.16
2018-12-17T18:53:37.175Z,99393.22
2018-12-17T18:56:05.926Z,99396.72
2018-12-17T18:58:35.261Z,99400.11
2018-12-17T19:01:04.132Z,99405.51
2018-12-17T19:03:33.453Z,99410.27
2018-12-17T19:06:01.808Z,99416.44
2018-12-17T19:08:30.017Z,99422.66
2018-12-17T19:10:58.499Z,99424.98
2018-12-17T19:13:27.226Z,99421.00
2018-12-17T19:15:56.288Z,99429.51
2018-12-17T19:18:25.455Z,99434.16
2018-12-17T19:20:54.061Z,99438.32
2018-12-17T19:23:23.373Z,99444.16
2018-12-17T19:25:51.774Z,99445.55
2018-12-17T19:28:20.089Z,99449.45
2018-12-17T19:30:49.184Z,99457.48
2018-12-17T19:33:17.515Z,99457.52
2018-12-17T19:35:45.845Z,99457.20
2018-12-17T19:38:14.005Z,99457.53
2018-12-17T19:40:42.278Z,99455.04
2018-12-17T19:43:10.576Z,99445.70
2018-12-17T19:45:39.117Z,99442.38
2018-12-17T19:48:07.321Z,99446.75
2018-12-17T19:53:14.617Z,99445.14
2018-12-17T19:55:43.087Z,99441.52
2018-12-17T19:58:11.344Z,99441.58
2018-12-17T20:00:40.044Z,99443.00
2018-12-17T20:03:08.457Z,99441.25
2018-12-17T20:05:36.721Z,99444.34
2018-12-17T20:08:05.117Z,99440.03
2018-12-17T20:10:33.609Z,99446.58
2018-12-17T20:13:02.703Z,99443.09
2018-12-17T20:15:31.054Z,99455.25
2018-12-17T20:18:00.082Z,99455.22
2018-12-17T20:20:28.809Z,99459.98
2018-12-17T20:22:58.079Z,99459.52
2018-12-17T20:25:28.104Z,99461.36
2018-12-17T20:27:56.988Z,99461.06
2018-12-17T20:30:25.502Z,99461.59
2018-12-17T20:32:53.881Z,99467.28
2018-12-17T20:35:22.338Z,99466.27
2018-12-17T20:37:50.977Z,99467.54
2018-12-17T20:40:19.549Z,99466.36
2018-12-17T20:42:48.063Z,99470.61
2018-12-17T20:45:16.332Z,99474.81
2018-12-17T20:47:44.621Z,99477.52
2018-12-17T20:50:12.855Z,99483.47
2018-12-17T20:52:41.440Z,99488.10
2018-12-17T20:55:09.750Z,99491.50
2018-12-17T20:57:38.331Z,99497.25
2018-12-17T21:00:07.041Z,99499.58
2018-12-17T21:02:36.367Z,99502.77
2018-12-17T21:05:05.690Z,99506.61
2018-12-17T21:07:34.308Z,99502.24
2018-12-17T21:10:03.422Z,99506.31
2018-12-17T21:12:32.140Z,99508.39
2018-12-17T21:15:01.548Z,99508.73
2018-12-17T21:17:31.130Z,99513.58
2018-12-17T21:20:00.318Z,99513.10
2018-12-17T21:22:29.442Z,99512.47
2018-12-17T21:24:57.992Z,99516.87
2018-12-17T21:27:26.273Z,99518.45
2018-12-17T21:29:54.699Z,99519.29
2018-12-17T21:32:22.971Z,99510.89
2018-12-17T21:34:51.203Z,99510.98
2018-12-17T21:37:19.786Z,99511.92
2018-12-17T21:39:48.327Z,99509.44
2018-12-17T21:42:16.818Z,99514.97
2018-12-17T21:44:45.027Z,99514.98
2018-12-17T21:47:13.322Z,99523.45
2018-12-17T21:49:41.729Z,99522.27
2018-12-17T21:52:10.579Z,99526.31
2018-12-17T21:54:39.102Z,99528.12
2018-12-17T21:57:07.546Z,99527.28
2018-12-17T21:59:36.115Z,99532.48
2018-12-17T22:02:04.399Z,99533.26
2018-12-17T22:04:32.728Z,99535.78
2018-12-17T22:07:01.436Z,99539.98
2018-12-17T22:09:29.630Z,99546.23
2018-12-17T22:11:58.054Z,99545.55
2018-12-17T22:14:26.669Z,99553.30
2018-12-17T22:16:55.023Z,99546.30
2018-12-17T22:19:24.378Z,99547.64
2018-12-17T22:21:52.627Z,99546.05
2018-12-17T22:24:21.185Z,99549.69
2018-12-17T22:26:49.456Z,99549.78
2018-12-17T22:29:18.273Z,99551.80
2018-12-17T22:31:46.511Z,99551.95
2018-12-17T22:34:14.749Z,99544.91
2018-12-17T22:39:22.828Z,99543.54
2018-12-17T22:44:30.336Z,99542.94
2018-12-17T22:46:59.061Z,99536.52
2018-12-17T22:49:27.481Z,99538.06
2018-12-17T22:51:55.800Z,99541.95
2018-12-17T22:54:24.144Z,99531.58
2018-12-17T22:56:52.831Z,99538.63
2018-12-17T22:59:21.152Z,99535.51
2018-12-17T23:01:49.335Z,99528.63
2018-12-17T23:04:17.873Z,99532.36
2018-12-17T23:06:46.456Z,99532.42
2018-12-17T23:09:13.325Z,99529.91
2018-12-17T23:12:06.559Z,99535.45
2018-12-17T23:14:52.345Z,99537.11
2018-12-17T23:17:37.829Z,99531.58
2018-12-17T23:20:06.785Z,99531.20
2018-12-17T23:22:39.869Z,99532.91
2018-12-17T23:25:10.457Z,99534.36
2018-12-17T23:27:45.692Z,99536.42
2018-12-17T23:30:15.587Z,99533.81
2018-12-17T23:32:43.881Z,99536.05
2018-12-17T23:35:12.593Z,99535.00
2018-12-17T23:37:40.828Z,99526.09
2018-12-17T23:40:10.275Z,99530.14
2018-12-17T23:42:38.931Z,99523.67
2018-12-17T23:45:07.931Z,99527.31
2018-12-17T23:47:37.561Z,99528.78
2018-12-17T23:50:06.886Z,99524.11
2018-12-17T23:52:36.224Z,99525.23
2018-12-17T23:55:05.548Z,99530.27
2018-12-17T23:57:33.833Z,99528.80
